Blue Lake, Louisiana
Current Conditions -  °F | °C
As of 1:01 PM on Monday 22 Dec 2014 (Local Time) from KAEX Reporting Station
Overcast Overcast  
Wind Chill: 65°   Ceiling: 1000
Heat Index: 65°   Visibility: 10mi
Dew Point: 61°   Wind: 12mph
Humidity: 87%   Direction: 190°S
Pressure: 29.65"   Gusts: NA
Location:  31.0356°N, 92.5053°W
Report Text: KAEX 221901Z 19010KT 10SM OVC010 18/16 A2965 RMK AO2 T01830161
Loading
Personal Weather Stations






























Interactive Weather Map New forecast layout! Learn more

10-Day Weather Forecast

Advertisements
Track Severe Weather on mobile